Time;durP1;ratioP1;P1;durP2;ratioP2;P2;SDS_P1;SDS_P2;PMS_P1;PMS_P2;Temp;Humidity;BMP_temperature;BMP_pressure;BME280_temperature;BME280_humidity;BME280_pressure;Samples;Min_cycle;Max_cycle;Signal;HPM_P1;HPM_P2
2022/12/19 00:00:47;;;;;;;57.58;22.83;;;;;;;-6.10;92.71;97330.22;5012056;28;20049;-80
2022/12/19 00:03:13;;;;;;;50.45;20.70;;;;;;;-6.11;92.65;97323.28;5015506;28;20038;-80
2022/12/19 00:05:42;;;;;;;52.72;21.02;;;;;;;-6.09;92.52;97328.38;5011916;28;20050;-79
2022/12/19 00:08:13;;;;;;;56.35;22.15;;;;;;;-6.10;92.51;97340.84;5017488;28;20048;-79
2022/12/19 00:10:40;;;;;;;53.15;21.02;;;;;;;-6.11;92.70;97331.25;5004583;28;20050;-80
2022/12/19 00:13:06;;;;;;;55.33;20.75;;;;;;;-6.12;92.32;97318.16;5014142;28;20041;-81
2022/12/19 00:15:35;;;;;;;56.25;20.17;;;;;;;-6.12;92.23;97321.63;5008505;28;20125;-79
2022/12/19 00:18:01;;;;;;;56.30;20.33;;;;;;;-6.13;92.67;97333.25;5016962;28;20054;-79
2022/12/19 00:20:28;;;;;;;59.53;20.58;;;;;;;-6.09;92.62;97328.38;5000452;28;20046;-78
2022/12/19 00:22:54;;;;;;;57.45;21.10;;;;;;;-6.06;92.60;97328.81;4997390;28;20033;-79
2022/12/19 00:25:22;;;;;;;59.97;20.10;;;;;;;-6.06;92.81;97344.72;5009422;28;20045;-79
2022/12/19 00:27:49;;;;;;;58.13;21.30;;;;;;;-6.03;92.72;97348.84;5004092;28;20786;-78
2022/12/19 00:30:15;;;;;;;51.25;20.92;;;;;;;-5.98;92.81;97356.25;5003661;28;20125;-79
2022/12/19 00:32:43;;;;;;;55.50;20.73;;;;;;;-5.94;92.79;97353.03;4996333;28;20442;-79
2022/12/19 00:35:10;;;;;;;58.03;20.60;;;;;;;-5.91;92.62;97333.25;5001685;28;20042;-79
2022/12/19 00:37:36;;;;;;;53.30;21.42;;;;;;;-5.90;92.81;97326.88;5016937;28;20045;-79
2022/12/19 00:40:03;;;;;;;52.22;20.33;;;;;;;-5.90;92.70;97316.28;5018912;28;20046;-80
2022/12/19 00:42:32;;;;;;;54.70;20.90;;;;;;;-5.88;92.50;97303.66;5007286;28;20047;-78
2022/12/19 00:44:58;;;;;;;57.47;21.73;;;;;;;-5.84;92.50;97299.63;5007538;28;20065;-79
2022/12/19 00:47:25;;;;;;;49.38;19.90;;;;;;;-5.81;92.57;97289.44;5007925;28;20057;-79
2022/12/19 00:49:53;;;;;;;53.65;20.48;;;;;;;-5.92;92.81;97286.50;5007327;28;20045;-78
2022/12/19 00:52:19;;;;;;;58.05;20.95;;;;;;;-5.83;93.12;97295.97;4997833;28;20061;-79
2022/12/19 00:54:47;;;;;;;51.13;20.20;;;;;;;-5.80;93.07;97290.25;5004245;28;20045;-79
2022/12/19 00:57:14;;;;;;;55.85;20.50;;;;;;;-5.83;93.09;97274.75;5018564;28;20133;-79
2022/12/19 00:59:45;;;;;;;51.80;21.05;;;;;;;-5.78;93.00;97267.03;5019023;28;20050;-79
2022/12/19 01:02:12;;;;;;;56.53;21.27;;;;;;;-5.87;93.20;97246.94;5018994;28;20064;-80
2022/12/19 01:04:41;;;;;;;51.45;21.15;;;;;;;-5.74;93.14;97252.38;5018510;28;20046;-78
2022/12/19 01:07:12;;;;;;;52.67;21.13;;;;;;;-5.83;93.52;97264.13;5003127;28;20043;-78
2022/12/19 01:09:38;;;;;;;57.00;20.95;;;;;;;-5.73;93.71;97296.44;5019135;28;20057;-80
2022/12/19 01:14:52;;;;;;;53.83;20.67;;;;;;;-5.68;93.12;97320.56;5005637;28;20092;-79
2022/12/19 01:17:19;;;;;;;54.72;20.52;;;;;;;-5.58;93.15;97341.47;5002959;28;20109;-78
2022/12/19 01:19:50;;;;;;;56.47;20.50;;;;;;;-5.59;92.85;97330.00;5020704;28;20440;-79
2022/12/19 01:22:18;;;;;;;51.17;20.50;;;;;;;-5.55;93.00;97325.97;5019828;28;20042;-78
2022/12/19 01:24:44;;;;;;;54.00;20.58;;;;;;;-5.53;93.04;97323.97;5020674;28;20060;-79
2022/12/19 01:27:11;;;;;;;54.28;21.52;;;;;;;-5.48;93.15;97301.31;5004826;28;20042;-79
2022/12/19 01:29:39;;;;;;;49.38;19.52;;;;;;;-5.47;93.36;97305.63;5017904;28;20046;-79
2022/12/19 01:32:05;;;;;;;54.00;21.13;;;;;;;-5.36;93.07;97313.88;5023672;28;20046;-79
2022/12/19 01:34:32;;;;;;;49.03;19.73;;;;;;;-5.40;92.38;97302.00;5012867;28;20042;-79
2022/12/19 01:36:59;;;;;;;53.22;20.38;;;;;;;-5.48;92.80;97286.22;5020552;28;20050;-79
2022/12/19 01:39:28;;;;;;;53.17;20.67;;;;;;;-5.44;92.56;97268.88;5023521;28;20049;-78
2022/12/19 01:41:55;;;;;;;57.45;20.92;;;;;;;-5.43;92.50;97264.38;5008241;28;20038;-78
2022/12/19 01:44:24;;;;;;;46.83;19.95;;;;;;;-5.41;92.37;97267.69;5003919;28;20061;-79
2022/12/19 01:46:56;;;;;;;51.67;20.80;;;;;;;-5.52;92.19;97255.78;5003892;28;20042;-78
2022/12/19 01:49:27;;;;;;;50.90;19.98;;;;;;;-5.47;92.19;97271.13;5011345;28;20050;-78
2022/12/19 01:51:57;;;;;;;54.58;21.33;;;;;;;-5.40;92.12;97269.31;5003253;28;20401;-79
2022/12/19 01:54:29;;;;;;;57.65;20.98;;;;;;;-5.34;92.12;97258.75;5021188;28;20040;-79
2022/12/19 01:56:58;;;;;;;58.65;21.05;;;;;;;-5.38;92.21;97277.91;5006419;28;20042;-79
2022/12/19 01:59:31;;;;;;;51.90;20.23;;;;;;;-5.32;92.34;97271.84;5022689;28;20045;-78
2022/12/19 02:02:09;;;;;;;58.03;21.63;;;;;;;-5.31;92.55;97279.59;5006753;28;20050;-78
2022/12/19 02:04:36;;;;;;;57.88;21.08;;;;;;;-5.47;92.93;97276.44;5010243;28;20050;-79
2022/12/19 02:07:07;;;;;;;54.03;20.40;;;;;;;-5.35;93.16;97288.13;5000974;28;20633;-78
2022/12/19 02:09:36;;;;;;;52.95;20.92;;;;;;;-5.27;92.76;97286.16;5000366;28;20057;-79
2022/12/19 02:12:04;;;;;;;57.92;21.02;;;;;;;-5.25;92.14;97300.06;5010578;28;20046;-79
2022/12/19 02:14:31;;;;;;;52.90;22.42;;;;;;;-5.22;92.27;97301.50;5013714;28;20050;-80
2022/12/19 02:17:07;;;;;;;59.20;21.73;;;;;;;-5.16;92.00;97306.03;5016450;28;20057;-79
2022/12/19 02:20:02;;;;;;;53.88;20.77;;;;;;;-5.14;92.10;97309.31;5011301;28;20047;-81
2022/12/19 02:22:43;;;;;;;56.63;21.20;;;;;;;-5.19;91.86;97306.41;5004533;28;20045;-80
2022/12/19 02:25:42;;;;;;;55.67;21.98;;;;;;;-5.17;92.03;97296.41;5012953;28;20069;-79
2022/12/19 02:28:26;;;;;;;55.65;20.00;;;;;;;-5.20;92.01;97291.50;5012733;28;20548;-80
2022/12/19 02:31:04;;;;;;;;;;;;;;;-5.16;92.04;97303.38;5007167;28;20053;-79
2022/12/19 02:33:38;;;;;;;57.50;20.08;;;;;;;-5.09;91.99;97298.91;5013106;28;19921;-79
2022/12/19 02:36:08;;;;;;;53.90;19.70;;;;;;;-5.09;91.63;97314.84;4996374;28;20042;-80
2022/12/19 02:38:44;;;;;;;60.88;21.77;;;;;;;-5.10;91.69;97321.19;5006342;28;20054;-79
2022/12/19 02:41:15;;;;;;;57.00;21.23;;;;;;;-5.16;91.53;97319.31;5001721;28;20681;-79
2022/12/19 02:43:48;;;;;;;55.03;21.02;;;;;;;-5.14;91.80;97317.28;5007897;28;20054;-79
2022/12/19 02:46:19;;;;;;;;;;;;;;;-5.15;91.62;97312.97;5013692;28;20145;-79
2022/12/19 02:48:46;;;;;;;55.65;20.48;;;;;;;-5.23;91.80;97318.44;4999555;28;19948;-79
2022/12/19 02:51:13;;;;;;;57.53;20.55;;;;;;;-5.16;91.75;97314.00;4995792;28;20053;-79
2022/12/19 02:53:42;;;;;;;54.78;21.13;;;;;;;-5.18;91.70;97309.88;5009040;28;20046;-78
2022/12/19 02:56:35;;;;;;;53.85;21.15;;;;;;;-5.09;91.71;97322.00;4994095;28;20070;-79
2022/12/19 02:59:35;;;;;;;55.88;20.77;;;;;;;-5.18;91.49;97321.31;4996322;28;20042;-80
2022/12/19 03:02:10;;;;;;;50.15;20.25;;;;;;;-5.20;91.47;97302.13;5003917;28;20477;-78
2022/12/19 03:04:48;;;;;;;62.95;21.80;;;;;;;-5.15;91.31;97309.50;5014177;28;20418;-79
2022/12/19 03:07:25;;;;;;;53.60;21.42;;;;;;;-5.17;90.82;97304.38;5013375;28;20048;-79
2022/12/19 03:10:01;;;;;;;54.75;21.67;;;;;;;-5.14;90.95;97308.50;5011994;28;20045;-79
2022/12/19 03:12:32;;;;;;;57.55;22.60;;;;;;;-5.15;90.80;97334.22;5014030;28;20064;-79
2022/12/19 03:15:00;;;;;;;45.25;20.00;;;;;;;-5.20;90.89;97339.31;4992394;28;20061;-79
2022/12/19 03:17:30;;;;;;;53.50;20.52;;;;;;;-5.14;90.98;97327.06;4993967;28;20046;-79
2022/12/19 03:19:59;;;;;;;59.75;21.95;;;;;;;-5.14;90.94;97322.59;4994166;28;20434;-79
2022/12/19 03:22:25;;;;;;;50.80;19.88;;;;;;;-5.11;91.12;97332.84;4997792;28;20048;-78
2022/12/19 03:24:53;;;;;;;54.00;20.58;;;;;;;-5.05;91.02;97342.66;4998796;28;20053;-79
2022/12/19 03:27:27;;;;;;;52.30;21.48;;;;;;;-5.02;91.24;97342.25;5004432;28;20044;-79
2022/12/19 03:30:00;;;;;;;59.55;22.35;;;;;;;-4.96;91.41;97339.84;5005424;28;20049;-79
2022/12/19 03:32:29;;;;;;;59.17;22.48;;;;;;;-4.97;91.45;97341.69;5011687;28;20041;-79
2022/12/19 03:35:00;;;;;;;51.90;22.33;;;;;;;-4.89;91.30;97356.66;4997539;28;20046;-79
2022/12/19 03:37:33;;;;;;;53.42;20.45;;;;;;;-4.89;91.36;97354.00;4995456;28;20046;-79
2022/12/19 03:40:05;;;;;;;60.28;21.52;;;;;;;-4.90;91.34;97360.34;5005366;28;20042;-79
2022/12/19 03:45:24;;;;;;;52.40;20.95;;;;;;;-4.93;91.21;97350.91;5011686;28;20080;-80
2022/12/19 03:47:57;;;;;;;56.30;21.40;;;;;;;-4.90;91.14;97376.28;4997456;28;20042;-79
2022/12/19 03:50:32;;;;;;;58.90;21.20;;;;;;;-4.89;90.99;97385.88;5010450;28;20057;-80
2022/12/19 03:53:05;;;;;;;60.75;21.50;;;;;;;-4.94;91.24;97369.72;5007302;28;20099;-80
2022/12/19 03:55:40;;;;;;;58.80;22.20;;;;;;;-4.94;91.52;97377.66;5021122;28;20046;-78
2022/12/19 03:58:10;;;;;;;55.80;22.15;;;;;;;-4.88;91.33;97382.19;4996459;28;20042;-78
2022/12/19 04:00:46;;;;;;;51.38;20.92;;;;;;;-4.83;91.19;97390.41;4998248;28;20054;-77
2022/12/19 04:03:16;;;;;;;56.58;22.25;;;;;;;-4.94;91.49;97391.78;5010004;28;20048;-77
2022/12/19 04:05:47;;;;;;;59.33;22.70;;;;;;;-4.94;91.12;97375.00;5014205;28;20050;-76
2022/12/19 04:08:15;;;;;;;62.85;22.25;;;;;;;-4.93;91.22;97366.03;5013189;28;20129;-80
2022/12/19 04:10:55;;;;;;;53.40;21.90;;;;;;;-4.91;91.24;97369.28;4998227;28;20074;-78
2022/12/19 04:13:27;;;;;;;55.95;22.25;;;;;;;-4.93;91.31;97355.41;5008992;28;20041;-77
2022/12/19 04:16:00;;;;;;;59.50;23.42;;;;;;;-4.92;91.58;97362.34;4992609;28;20042;-77
2022/12/19 04:18:28;;;;;;;;;;;;;;;-4.95;91.39;97352.13;4991746;28;20054;-78
2022/12/19 04:21:06;;;;;;;55.15;20.88;;;;;;;-4.89;91.42;97373.41;4999474;28;19922;-78
2022/12/19 04:23:38;;;;;;;57.63;21.95;;;;;;;-5.05;92.04;97353.28;5010787;28;20046;-78
2022/12/19 04:26:11;;;;;;;43.47;17.02;;;;;;;-4.94;91.84;97345.78;5007530;28;20061;-77
2022/12/19 04:28:43;;;;;;;58.58;22.08;;;;;;;-5.11;91.81;97370.00;4997142;28;20074;-78
2022/12/19 04:31:13;;;;;;;58.10;21.60;;;;;;;-5.04;92.38;97327.56;4998623;28;20046;-80
2022/12/19 04:33:41;;;;;;;58.55;20.83;;;;;;;-5.05;92.45;97316.09;5005453;28;20401;-77
2022/12/19 04:36:08;;;;;;;61.42;21.52;;;;;;;-5.01;92.21;97300.63;5004659;28;20050;-77
2022/12/19 04:38:37;;;;;;;59.13;22.80;;;;;;;-5.16;92.79;97289.28;4997573;28;20045;-77
2022/12/19 04:41:03;;;;;;;57.33;22.02;;;;;;;-5.08;93.12;97332.41;5009640;28;20057;-77
2022/12/19 04:43:30;;;;;;;59.83;22.45;;;;;;;-5.54;95.23;97423.16;5006617;28;20409;-78
2022/12/19 04:45:57;;;;;;;52.75;21.42;;;;;;;-5.44;95.29;97390.97;4998331;28;20485;-80
2022/12/19 04:48:23;;;;;;;59.10;22.05;;;;;;;-5.55;95.75;97402.94;5009444;28;20054;-79
2022/12/19 04:50:51;;;;;;;64.10;24.17;;;;;;;-5.48;96.02;97378.28;5009340;28;20679;-79
2022/12/19 04:53:20;;;;;;;64.65;23.80;;;;;;;-5.32;95.61;97380.69;5010326;28;20041;-77
2022/12/19 04:55:47;;;;;;;61.85;23.33;;;;;;;-5.49;96.52;97388.06;5006818;28;20054;-79
2022/12/19 04:58:16;;;;;;;65.38;24.00;;;;;;;-5.30;96.33;97386.59;5003251;28;20049;-77
2022/12/19 05:00:43;;;;;;;57.47;22.70;;;;;;;-5.30;96.99;97346.78;5014951;28;20505;-77
2022/12/19 05:03:09;;;;;;;61.08;23.17;;;;;;;-5.25;96.49;97353.16;5015793;28;20041;-78
2022/12/19 05:05:38;;;;;;;61.63;21.83;;;;;;;-5.10;95.64;97361.03;5003626;28;20054;-77
2022/12/19 05:08:06;;;;;;;61.78;26.00;;;;;;;-5.37;95.62;97399.03;5018698;28;20121;-77
2022/12/19 05:10:33;;;;;;;59.50;22.92;;;;;;;-5.27;96.28;97355.19;5004669;28;20387;-77
2022/12/19 05:12:59;;;;;;;64.85;24.73;;;;;;;-5.53;97.25;97350.50;4998122;28;20409;-77
2022/12/19 05:15:26;;;;;;;58.40;22.67;;;;;;;-5.32;97.23;97341.69;5015327;28;20053;-77
2022/12/19 05:17:52;;;;;;;60.30;23.30;;;;;;;-5.30;97.10;97338.81;5016456;28;20042;-78
2022/12/19 05:20:19;;;;;;;58.75;22.75;;;;;;;-5.14;96.42;97337.69;5014835;28;20505;-77
2022/12/19 05:22:45;;;;;;;67.63;24.15;;;;;;;-5.04;95.62;97336.34;5013057;28;20061;-78
2022/12/19 05:25:15;;;;;;;67.00;22.75;;;;;;;-5.01;95.37;97337.78;5013063;28;20045;-80
2022/12/19 05:27:41;;;;;;;64.88;22.83;;;;;;;-4.95;95.79;97357.44;5007111;28;20045;-79
2022/12/19 05:30:09;;;;;;;65.78;26.13;;;;;;;-5.18;95.47;97395.69;5007978;28;20037;-78
2022/12/19 05:32:35;;;;;;;62.72;23.45;;;;;;;-5.11;95.73;97401.88;5024930;28;20103;-79
2022/12/19 05:35:02;;;;;;;61.45;24.60;;;;;;;-5.36;96.16;97392.69;5014299;28;20042;-79
2022/12/19 05:37:28;;;;;;;57.85;22.75;;;;;;;-5.18;96.64;97353.19;5002845;28;20052;-79
2022/12/19 05:39:55;;;;;;;65.22;25.17;;;;;;;-5.14;96.00;97375.69;5017636;28;20042;-79
2022/12/19 05:42:25;;;;;;;65.43;24.25;;;;;;;-5.14;96.28;97349.13;5014242;28;20510;-79
2022/12/19 05:44:51;;;;;;;64.65;24.10;;;;;;;-4.99;96.15;97347.19;4996899;28;20046;-80
2022/12/19 05:47:19;;;;;;;59.92;22.15;;;;;;;-4.92;94.81;97347.22;5015024;28;20038;-79
2022/12/19 05:49:45;;;;;;;62.13;24.30;;;;;;;-4.94;94.38;97373.19;5001551;28;20129;-79
2022/12/19 05:52:12;;;;;;;63.03;23.50;;;;;;;-4.92;94.49;97375.63;5005410;28;20045;-80
2022/12/19 05:54:38;;;;;;;59.55;23.05;;;;;;;-4.83;94.02;97361.19;5015877;28;20073;-79
2022/12/19 05:57:05;;;;;;;54.88;22.55;;;;;;;-4.77;93.58;97363.06;5014739;28;20048;-80
2022/12/19 05:59:35;;;;;;;60.35;22.35;;;;;;;-4.78;94.44;97366.72;5000170;28;20038;-79
2022/12/19 06:02:04;;;;;;;61.00;23.08;;;;;;;-4.73;93.58;97351.84;5016052;28;20046;-79
2022/12/19 06:04:30;;;;;;;55.88;22.67;;;;;;;-4.73;93.94;97353.69;5015398;28;20092;-79
2022/12/19 06:06:57;;;;;;;54.95;22.23;;;;;;;-4.63;93.22;97367.44;5013890;28;20497;-80
2022/12/19 06:09:24;;;;;;;61.00;24.23;;;;;;;-4.67;92.75;97384.78;4998840;28;20050;-79
2022/12/19 06:11:50;;;;;;;59.25;21.98;;;;;;;-4.58;92.97;97390.75;5014571;28;20049;-80
2022/12/19 06:14:17;;;;;;;60.25;22.92;;;;;;;-4.68;93.48;97372.50;4996845;28;20046;-79
2022/12/19 06:16:45;;;;;;;55.20;22.80;;;;;;;-4.60;93.42;97382.97;5022206;28;20414;-79
2022/12/19 06:19:11;;;;;;;59.70;24.20;;;;;;;-4.51;93.38;97380.97;4997812;28;20046;-80
2022/12/19 06:21:38;;;;;;;58.03;23.55;;;;;;;-4.46;93.20;97387.34;5014254;28;20065;-78
2022/12/19 06:24:05;;;;;;;54.92;22.60;;;;;;;-4.43;93.03;97361.38;5006675;28;20494;-80
2022/12/19 06:26:34;;;;;;;63.08;23.25;;;;;;;-4.35;92.94;97377.16;5007248;28;20506;-77
2022/12/19 06:29:01;;;;;;;56.28;23.20;;;;;;;-4.48;92.85;97360.13;5016041;28;20038;-78
2022/12/19 06:31:27;;;;;;;52.55;22.80;;;;;;;-4.37;92.76;97366.72;5006916;28;20049;-77
2022/12/19 06:33:55;;;;;;;57.22;23.40;;;;;;;-4.34;92.35;97357.50;5006824;28;20038;-80
2022/12/19 06:36:24;;;;;;;55.30;22.45;;;;;;;-4.31;92.31;97354.47;5015594;28;20060;-78
2022/12/19 06:38:51;;;;;;;59.25;23.20;;;;;;;-4.42;91.96;97361.19;5059691;23;20056;-79
2022/12/19 06:44:05;;;;;;;55.97;23.08;;;;;;;-4.31;92.91;97375.75;5062672;28;20051;-89
2022/12/19 06:46:32;;;;;;;52.28;21.98;;;;;;;-4.29;92.78;97368.38;5078348;28;20044;-89
2022/12/19 06:49:00;;;;;;;57.85;22.30;;;;;;;-4.28;92.84;97357.56;5079619;28;20047;-88
2022/12/19 06:51:27;;;;;;;57.28;23.00;;;;;;;-4.35;92.81;97351.38;5080445;28;20044;-87
2022/12/19 06:53:54;;;;;;;55.10;21.80;;;;;;;-4.25;92.22;97369.63;5059468;28;20417;-87
2022/12/19 06:56:21;;;;;;;61.47;23.58;;;;;;;-4.40;92.47;97360.97;5064757;28;20041;-85
2022/12/19 06:58:48;;;;;;;56.13;23.00;;;;;;;-4.39;92.31;97370.59;5078583;28;20052;-85
2022/12/19 07:01:19;;;;;;;59.15;23.42;;;;;;;-4.36;92.32;97373.69;5077901;28;20044;-90
2022/12/19 07:03:47;;;;;;;51.90;21.38;;;;;;;-4.31;92.31;97360.59;5076498;28;20055;-84
2022/12/19 07:06:15;;;;;;;52.17;21.67;;;;;;;-4.24;92.17;97361.44;5077799;28;20049;-88
2022/12/19 07:08:42;;;;;;;56.33;23.13;;;;;;;-4.20;92.21;97364.53;5079545;28;20111;-86
2022/12/19 07:11:08;;;;;;;52.88;21.58;;;;;;;-4.15;92.10;97366.59;5079149;28;20041;-88
2022/12/19 07:13:35;;;;;;;55.47;22.27;;;;;;;-4.13;91.73;97372.53;5079369;28;20541;-85
2022/12/19 07:16:04;;;;;;;54.70;22.35;;;;;;;-4.14;91.68;97366.38;5080761;28;20056;-85
2022/12/19 07:18:33;;;;;;;56.95;23.33;;;;;;;-4.09;91.89;97379.91;5078052;28;20047;-87
2022/12/19 07:21:00;;;;;;;54.85;22.42;;;;;;;-4.06;91.89;97376.84;5078528;28;20048;-84
2022/12/19 07:23:29;;;;;;;61.20;23.63;;;;;;;-4.10;91.96;97369.47;5077528;28;20048;-85
2022/12/19 07:25:55;;;;;;;54.67;21.90;;;;;;;-4.09;92.12;97374.59;5070273;28;20052;-86
2022/12/19 07:28:22;;;;;;;57.60;22.45;;;;;;;-4.12;92.01;97380.31;5078307;28;20051;-90
2022/12/19 07:30:48;;;;;;;56.70;23.73;;;;;;;-4.07;91.91;97383.19;5078510;28;20337;-86
2022/12/19 07:33:15;;;;;;;53.38;22.70;;;;;;;-4.03;91.85;97379.09;5077651;28;20040;-85
2022/12/19 07:35:41;;;;;;;54.42;21.98;;;;;;;-3.97;91.98;97383.66;5079597;28;20052;-86
2022/12/19 07:38:08;;;;;;;56.65;22.42;;;;;;;-3.92;91.90;97392.84;5078158;28;20064;-86
2022/12/19 07:40:36;;;;;;;59.42;23.27;;;;;;;-3.87;91.87;97393.06;5077727;28;20047;-86
2022/12/19 07:43:04;;;;;;;55.63;23.38;;;;;;;-3.80;91.85;97399.25;5077572;28;20052;-86
2022/12/19 07:45:31;;;;;;;57.97;22.75;;;;;;;-3.89;92.06;97374.66;5077839;28;20051;-84
2022/12/19 07:48:00;;;;;;;58.65;23.52;;;;;;;-3.78;92.11;97381.22;5077357;28;20071;-86
2022/12/19 07:50:26;;;;;;;53.70;22.55;;;;;;;-3.74;91.96;97369.16;5077718;28;20049;-89
2022/12/19 07:52:53;;;;;;;57.20;22.27;;;;;;;-3.69;91.88;97374.69;5078219;28;20054;-83
2022/12/19 07:55:19;;;;;;;54.38;22.73;;;;;;;-3.62;91.90;97386.16;5077132;28;20051;-88
2022/12/19 07:57:47;;;;;;;61.65;24.15;;;;;;;-3.62;91.62;97383.50;5078030;28;20049;-88
2022/12/19 08:00:14;;;;;;;51.22;21.48;;;;;;;-3.62;91.55;97383.50;5079168;28;20053;-87
2022/12/19 08:02:41;;;;;;;51.38;22.27;;;;;;;-3.55;91.16;97387.00;5077768;28;20049;-86
2022/12/19 08:05:08;;;;;;;52.83;21.42;;;;;;;-3.53;90.64;97384.94;5077230;28;20040;-85
2022/12/19 08:07:35;;;;;;;51.80;21.88;;;;;;;-3.54;90.28;97388.63;5076661;28;20055;-86
2022/12/19 08:10:01;;;;;;;57.35;24.17;;;;;;;-3.51;90.66;97387.41;5076607;28;20047;-85
2022/12/19 08:12:28;;;;;;;54.45;22.25;;;;;;;-3.43;90.97;97385.34;5077430;28;20043;-83
2022/12/19 08:14:56;;;;;;;55.15;22.58;;;;;;;-3.39;90.65;97390.25;5077835;28;20491;-85
2022/12/19 08:17:22;;;;;;;50.92;20.98;;;;;;;-3.41;90.65;97383.31;5077683;28;20508;-85
2022/12/19 08:19:49;;;;;;;59.50;21.90;;;;;;;-3.32;90.71;97377.78;5077946;28;20421;-86
2022/12/19 08:22:15;;;;;;;55.55;23.13;;;;;;;-3.33;90.67;97368.16;5075991;28;20048;-86
2022/12/19 08:24:42;;;;;;;51.72;21.27;;;;;;;-3.27;90.68;97372.66;5076626;28;20060;-86
2022/12/19 08:27:08;;;;;;;52.10;21.23;;;;;;;-3.26;90.36;97360.97;5077395;28;20055;-87
2022/12/19 08:29:35;;;;;;;56.72;22.55;;;;;;;-3.24;90.73;97356.25;5077828;28;20082;-84
2022/12/19 08:32:03;;;;;;;57.10;23.17;;;;;;;-3.15;90.84;97363.03;5077299;28;20044;-89
2022/12/19 08:34:29;;;;;;;54.72;21.58;;;;;;;-3.07;91.08;97362.81;5064627;28;20048;-86
2022/12/19 08:36:56;;;;;;;56.70;22.77;;;;;;;-3.04;90.92;97346.41;5061296;28;20044;-85
2022/12/19 08:39:22;;;;;;;54.47;20.95;;;;;;;-3.03;90.57;97348.03;5076794;28;20055;-88
2022/12/19 08:41:49;;;;;;;53.10;22.30;;;;;;;-2.95;90.71;97339.84;5077090;28;20049;-86
2022/12/19 08:44:16;;;;;;;51.10;22.45;;;;;;;-2.88;90.58;97351.28;5077401;28;20041;-85
2022/12/19 08:46:42;;;;;;;51.75;21.52;;;;;;;-2.83;90.47;97352.50;5077636;28;20048;-86
2022/12/19 08:49:10;;;;;;;52.85;21.95;;;;;;;-2.83;90.61;97348.00;5077244;28;20056;-85
2022/12/19 08:51:36;;;;;;;52.92;21.40;;;;;;;-2.75;90.97;97345.13;5077276;28;20055;-86
2022/12/19 08:54:03;;;;;;;53.70;22.27;;;;;;;-2.74;90.82;97335.28;5076982;28;20041;-86
2022/12/19 08:56:29;;;;;;;56.20;23.48;;;;;;;-2.66;90.65;97321.72;5077893;28;20063;-88
2022/12/19 08:58:56;;;;;;;54.03;22.95;;;;;;;-2.59;90.44;97322.50;5077753;28;20036;-88
2022/12/19 09:01:24;;;;;;;58.10;22.02;;;;;;;-2.59;90.10;97308.38;5077670;28;20049;-86
2022/12/19 09:03:51;;;;;;;50.63;20.90;;;;;;;-2.54;90.36;97314.69;5077257;28;20068;-85
2022/12/19 09:06:19;;;;;;;52.17;22.20;;;;;;;-2.47;90.05;97314.66;5077073;28;20048;-84
2022/12/19 09:08:46;;;;;;;49.60;21.42;;;;;;;-2.40;89.96;97313.63;5077479;28;20429;-87
2022/12/19 09:11:14;;;;;;;48.92;21.05;;;;;;;-2.41;90.14;97319.97;5077481;28;20044;-87
2022/12/19 09:13:42;;;;;;;56.67;22.23;;;;;;;-2.37;89.74;97305.19;5077568;28;20123;-85
2022/12/19 09:16:12;;;;;;;50.53;21.38;;;;;;;-2.32;89.70;97311.72;5077384;28;20049;-86
2022/12/19 09:18:38;;;;;;;45.63;20.60;;;;;;;-2.24;89.47;97309.66;5077599;28;20071;-85
2022/12/19 09:21:05;;;;;;;49.97;21.40;;;;;;;-2.20;89.77;97310.03;5077530;28;20048;-85
2022/12/19 09:23:34;;;;;;;55.47;22.65;;;;;;;-2.14;90.51;97298.50;5077463;28;20417;-89
2022/12/19 09:26:03;;;;;;;46.22;21.23;;;;;;;-2.13;90.22;97295.63;5078195;28;20047;-89
2022/12/19 09:28:30;;;;;;;48.22;20.92;;;;;;;-2.08;90.50;97286.97;5077905;28;20043;-85
2022/12/19 09:30:58;;;;;;;53.35;21.67;;;;;;;-2.00;90.77;97293.91;5078390;28;20086;-89
2022/12/19 09:33:24;;;;;;;53.90;22.27;;;;;;;-1.93;90.55;97279.50;5077832;28;20102;-88
2022/12/19 09:35:52;;;;;;;52.75;21.63;;;;;;;-1.90;90.53;97288.91;5078466;28;20051;-86
2022/12/19 09:38:19;;;;;;;55.80;23.90;;;;;;;-1.79;90.56;97300.75;5077072;28;20047;-88
2022/12/19 09:40:58;;;;;;;45.83;21.23;;;;;;;-1.82;90.20;97301.19;5078005;28;20048;-85
2022/12/19 09:43:39;;;;;;;47.75;21.02;;;;;;;-1.76;90.01;97303.00;5066603;28;20045;-87
2022/12/19 09:46:15;;;;;;;52.10;21.27;;;;;;;-1.64;89.88;97303.91;5071824;28;20051;-89
2022/12/19 09:48:41;;;;;;;53.13;21.33;;;;;;;-1.58;88.95;97305.72;5080822;28;20049;-89
2022/12/19 09:51:14;;;;;;;50.80;21.05;;;;;;;-1.56;89.54;97292.97;5082231;28;20048;-86
2022/12/19 09:53:52;;;;;;;47.38;20.67;;;;;;;-1.48;89.71;97306.03;5080448;28;20044;-86
2022/12/19 09:56:21;;;;;;;52.13;22.52;;;;;;;-1.37;90.13;97320.53;5082075;28;20055;-88
2022/12/19 09:58:52;;;;;;;53.00;22.20;;;;;;;-1.27;90.11;97314.72;5083106;28;20393;-85
2022/12/19 10:01:23;;;;;;;49.63;21.05;;;;;;;-1.21;88.90;97314.66;5081796;28;20052;-87
2022/12/19 10:03:59;;;;;;;47.83;21.58;;;;;;;-1.14;89.11;97314.59;5083067;28;20055;-86
2022/12/19 10:06:25;;;;;;;52.42;23.25;;;;;;;-1.14;89.06;97311.94;5082893;28;20044;-86
2022/12/19 10:08:53;;;;;;;51.80;21.95;;;;;;;-1.05;88.91;97313.25;5082956;28;20056;-86
2022/12/19 10:11:37;;;;;;;51.65;22.08;;;;;;;-0.95;89.26;97300.22;5082516;28;20053;-87
2022/12/19 10:14:22;;;;;;;50.70;20.38;;;;;;;-0.93;88.70;97298.16;5078248;28;20047;-89
2022/12/19 10:17:03;;;;;;;46.45;21.42;;;;;;;-0.90;88.58;97292.34;5085746;28;20055;-88
2022/12/19 10:19:42;;;;;;;48.30;20.85;;;;;;;-0.89;88.87;97285.97;5085398;28;20045;-87
2022/12/19 10:22:17;;;;;;;53.38;23.30;;;;;;;-0.93;88.88;97279.44;5084185;28;20048;-87
2022/12/19 10:25:16;;;;;;;51.30;23.70;;;;;;;-0.85;88.70;97287.16;5084278;28;20059;-89
2022/12/19 10:27:51;;;;;;;52.53;21.88;;;;;;;-0.75;87.81;97270.59;5085709;28;20155;-88
2022/12/19 10:30:20;;;;;;;49.53;22.27;;;;;;;-0.63;87.84;97278.66;5085669;28;20045;-85
2022/12/19 10:33:02;;;;;;;52.65;21.83;;;;;;;-0.58;87.78;97276.13;5085501;28;20053;-88
2022/12/19 10:35:34;;;;;;;49.05;21.98;;;;;;;-0.55;87.08;97267.69;5085870;28;20044;-88
2022/12/19 10:38:15;;;;;;;51.15;22.38;;;;;;;-0.54;87.24;97267.44;5086146;28;20045;-84
2022/12/19 10:40:45;;;;;;;51.50;22.23;;;;;;;-0.58;87.24;97266.25;5065283;28;20071;-88
2022/12/19 10:43:23;;;;;;;47.10;22.95;;;;;;;-0.50;87.81;97257.13;5063015;28;20045;-86
2022/12/19 10:45:54;;;;;;;49.10;22.13;;;;;;;-0.51;87.49;97255.50;5061045;28;20056;-88
2022/12/19 10:48:22;;;;;;;47.42;21.27;;;;;;;-0.48;87.57;97264.91;5058676;28;20641;-86
2022/12/19 10:50:49;;;;;;;49.53;22.02;;;;;;;-0.51;88.05;97260.84;5057103;28;20049;-87
2022/12/19 10:53:16;;;;;;;51.47;22.48;;;;;;;-0.45;88.11;97267.97;5059351;28;20045;-85
2022/12/19 10:55:45;;;;;;;49.33;22.27;;;;;;;-0.39;88.17;97269.72;5057354;28;20044;-87
2022/12/19 10:58:25;;;;;;;50.80;22.35;;;;;;;-0.33;87.83;97259.97;5057439;28;20262;-86
2022/12/19 11:01:03;;;;;;;51.15;23.40;;;;;;;-0.40;88.03;97252.06;5059949;28;20041;-84
2022/12/19 11:03:31;;;;;;;56.50;23.50;;;;;;;-0.46;87.77;97258.31;5057952;28;20045;-83
2022/12/19 11:05:58;;;;;;;48.25;22.77;;;;;;;-0.46;87.86;97255.63;5060985;28;20045;-83
2022/12/19 11:08:26;;;;;;;53.83;23.20;;;;;;;-0.47;88.05;97254.00;5058088;28;20048;-88
2022/12/19 11:10:55;;;;;;;49.47;22.90;;;;;;;-0.51;87.74;97239.44;5059949;28;20041;-88
2022/12/19 11:13:25;;;;;;;49.35;23.13;;;;;;;-0.55;88.00;97232.91;5058575;28;20127;-84
2022/12/19 11:15:54;;;;;;;53.08;22.98;;;;;;;-0.56;88.48;97232.09;5060696;28;20049;-83
2022/12/19 11:18:21;;;;;;;50.13;22.40;;;;;;;-0.53;88.30;97220.09;5060092;28;20062;-88
2022/12/19 11:20:56;;;;;;;53.72;23.42;;;;;;;-0.46;88.66;97220.84;5060162;28;20057;-85
2022/12/19 11:23:24;;;;;;;53.40;23.67;;;;;;;-0.36;89.36;97214.97;5059746;28;20056;-85
2022/12/19 11:25:57;;;;;;;51.63;23.40;;;;;;;-0.31;89.40;97202.53;5056405;28;20514;-85
2022/12/19 11:28:29;;;;;;;50.20;24.10;;;;;;;-0.29;89.17;97199.63;5056670;28;20104;-88
2022/12/19 11:30:58;;;;;;;48.95;23.13;;;;;;;-0.28;89.63;97186.00;5059691;28;20041;-84
2022/12/19 11:33:25;;;;;;;51.75;23.10;;;;;;;-0.22;89.59;97194.16;5059617;28;20040;-86
2022/12/19 11:35:53;;;;;;;53.28;24.23;;;;;;;-0.18;89.75;97190.78;5060212;28;20049;-80